sensor_id;sensor_type;location;lat;lon;timestamp;pressure;altitude;pressure_sealevel;temperature;humidity
49397;BME280;35615;41.410;2.194;2022-07-22T00:01:04;101573.44;;;30.61;48.31
49397;BME280;35615;41.410;2.194;2022-07-22T00:03:35;101570.84;;;30.60;47.37
49397;BME280;35615;41.410;2.194;2022-07-22T00:06:02;101573.50;;;30.60;46.86
49397;BME280;35615;41.410;2.194;2022-07-22T00:08:30;101572.88;;;30.52;46.68
49397;BME280;35615;41.410;2.194;2022-07-22T00:10:57;101573.44;;;30.33;47.02
49397;BME280;35615;41.410;2.194;2022-07-22T00:13:32;101585.50;;;30.45;46.67
49397;BME280;35615;41.410;2.194;2022-07-22T00:16:00;101578.38;;;30.46;47.31
49397;BME280;35615;41.410;2.194;2022-07-22T00:18:33;101568.41;;;30.52;46.68
49397;BME280;35615;41.410;2.194;2022-07-22T00:21:05;101573.78;;;30.51;46.84
49397;BME280;35615;41.410;2.194;2022-07-22T00:23:39;101563.25;;;30.46;47.46
49397;BME280;35615;41.410;2.194;2022-07-22T00:26:09;101556.75;;;30.55;46.96
49397;BME280;35615;41.410;2.194;2022-07-22T00:28:42;101554.78;;;30.61;47.02
49397;BME280;35615;41.410;2.194;2022-07-22T00:31:09;101552.06;;;30.63;46.69
49397;BME280;35615;41.410;2.194;2022-07-22T00:33:45;101543.06;;;30.67;46.99
49397;BME280;35615;41.410;2.194;2022-07-22T00:36:18;101544.72;;;30.71;46.91
49397;BME280;35615;41.410;2.194;2022-07-22T00:38:47;101541.16;;;30.71;46.47
49397;BME280;35615;41.410;2.194;2022-07-22T00:41:17;101544.66;;;30.73;46.85
49397;BME280;35615;41.410;2.194;2022-07-22T00:44:01;101542.94;;;30.70;47.10
49397;BME280;35615;41.410;2.194;2022-07-22T00:46:32;101542.06;;;30.70;46.57
49397;BME280;35615;41.410;2.194;2022-07-22T00:49:08;101539.41;;;30.70;47.09
49397;BME280;35615;41.410;2.194;2022-07-22T00:51:36;101542.25;;;30.65;47.34
49397;BME280;35615;41.410;2.194;2022-07-22T00:54:09;101542.25;;;30.65;47.28
49397;BME280;35615;41.410;2.194;2022-07-22T00:56:37;101538.63;;;30.66;47.17
49397;BME280;35615;41.410;2.194;2022-07-22T01:02:40;101536.84;;;30.67;47.45
49397;BME280;35615;41.410;2.194;2022-07-22T01:05:42;101540.56;;;30.61;47.47
49397;BME280;35615;41.410;2.194;2022-07-22T01:08:49;101537.03;;;30.60;47.71
49397;BME280;35615;41.410;2.194;2022-07-22T01:11:36;101531.69;;;30.60;47.63
49397;BME280;35615;41.410;2.194;2022-07-22T01:14:44;101531.63;;;30.62;47.30
49397;BME280;35615;41.410;2.194;2022-07-22T01:18:13;101526.38;;;30.59;47.75
49397;BME280;35615;41.410;2.194;2022-07-22T01:21:18;101531.81;;;30.56;47.59
49397;BME280;35615;41.410;2.194;2022-07-22T01:24:47;101531.88;;;30.54;47.50
49397;BME280;35615;41.410;2.194;2022-07-22T01:27:25;101525.22;;;30.41;48.41
49397;BME280;35615;41.410;2.194;2022-07-22T01:30:43;101520.75;;;30.42;47.78
49397;BME280;35615;41.410;2.194;2022-07-22T01:33:32;101524.22;;;30.44;48.03
49397;BME280;35615;41.410;2.194;2022-07-22T01:36:40;101519.09;;;30.38;48.31
49397;BME280;35615;41.410;2.194;2022-07-22T01:39:27;101516.38;;;30.39;47.71
49397;BME280;35615;41.410;2.194;2022-07-22T01:42:35;101520.75;;;30.42;47.59
49397;BME280;35615;41.410;2.194;2022-07-22T01:45:41;101520.84;;;30.39;48.36
49397;BME280;35615;41.410;2.194;2022-07-22T01:48:29;101515.59;;;30.35;47.94
49397;BME280;35615;41.410;2.194;2022-07-22T01:51:21;101518.38;;;30.32;48.10
49397;BME280;35615;41.410;2.194;2022-07-22T01:54:32;101508.63;;;30.31;47.90
49397;BME280;35615;41.410;2.194;2022-07-22T01:57:29;101521.56;;;30.16;49.01
49397;BME280;35615;41.410;2.194;2022-07-22T02:00:24;101511.41;;;30.28;48.32
49397;BME280;35615;41.410;2.194;2022-07-22T02:03:00;101511.41;;;30.28;48.76
49397;BME280;35615;41.410;2.194;2022-07-22T02:05:42;101513.09;;;30.31;48.78
49397;BME280;35615;41.410;2.194;2022-07-22T02:08:30;101508.78;;;30.27;48.61
49397;BME280;35615;41.410;2.194;2022-07-22T02:11:15;101506.06;;;30.28;49.01
49397;BME280;35615;41.410;2.194;2022-07-22T02:13:59;101508.78;;;30.27;49.11
49397;BME280;35615;41.410;2.194;2022-07-22T02:16:33;101511.56;;;30.22;49.04
49397;BME280;35615;41.410;2.194;2022-07-22T02:19:07;101517.94;;;30.18;49.28
49397;BME280;35615;41.410;2.194;2022-07-22T02:21:37;101508.97;;;30.21;49.09
49397;BME280;35615;41.410;2.194;2022-07-22T02:24:13;101504.72;;;30.14;50.08
49397;BME280;35615;41.410;2.194;2022-07-22T02:26:50;101512.31;;;29.98;50.78
49397;BME280;35615;41.410;2.194;2022-07-22T02:29:24;101504.31;;;29.98;50.18
49397;BME280;35615;41.410;2.194;2022-07-22T02:31:55;101495.41;;;29.99;50.19
49397;BME280;35615;41.410;2.194;2022-07-22T02:34:28;101493.75;;;29.95;50.42
49397;BME280;35615;41.410;2.194;2022-07-22T02:37:00;101495.50;;;29.96;50.86
49397;BME280;35615;41.410;2.194;2022-07-22T02:39:33;101498.25;;;29.93;50.93
49397;BME280;35615;41.410;2.194;2022-07-22T02:42:08;101494.94;;;29.85;51.40
49397;BME280;35615;41.410;2.194;2022-07-22T02:44:43;101494.84;;;29.88;51.34
49397;BME280;35615;41.410;2.194;2022-07-22T02:47:19;101488.50;;;29.92;51.19
49397;BME280;35615;41.410;2.194;2022-07-22T02:49:49;101487.94;;;29.80;51.86
49397;BME280;35615;41.410;2.194;2022-07-22T02:52:26;101492.50;;;29.77;52.28
49397;BME280;35615;41.410;2.194;2022-07-22T02:54:58;101482.69;;;29.79;51.66
49397;BME280;35615;41.410;2.194;2022-07-22T02:57:35;101484.41;;;29.80;51.59
49397;BME280;35615;41.410;2.194;2022-07-22T03:00:08;101483.69;;;29.75;51.62
49397;BME280;35615;41.410;2.194;2022-07-22T03:02:39;101480.44;;;29.65;51.95
49397;BME280;35615;41.410;2.194;2022-07-22T03:05:09;101482.06;;;29.69;52.23
49397;BME280;35615;41.410;2.194;2022-07-22T03:07:44;101482.94;;;29.71;52.33
49397;BME280;35615;41.410;2.194;2022-07-22T03:10:13;101479.19;;;29.77;52.12
49397;BME280;35615;41.410;2.194;2022-07-22T03:12:42;101478.47;;;29.72;52.32
49397;BME280;35615;41.410;2.194;2022-07-22T03:15:13;101468.75;;;29.71;52.07
49397;BME280;35615;41.410;2.194;2022-07-22T03:17:42;101474.13;;;29.68;52.22
49397;BME280;35615;41.410;2.194;2022-07-22T03:20:10;101471.34;;;29.72;52.41
49397;BME280;35615;41.410;2.194;2022-07-22T03:22:38;101477.63;;;29.70;52.32
49397;BME280;35615;41.410;2.194;2022-07-22T03:25:06;101475.09;;;29.65;52.69
49397;BME280;35615;41.410;2.194;2022-07-22T03:27:34;101477.81;;;29.64;52.68
49397;BME280;35615;41.410;2.194;2022-07-22T03:30:02;101467.16;;;29.64;52.39
49397;BME280;35615;41.410;2.194;2022-07-22T03:32:33;101466.41;;;29.60;52.35
49397;BME280;35615;41.410;2.194;2022-07-22T03:35:03;101473.25;;;29.67;52.21
49397;BME280;35615;41.410;2.194;2022-07-22T03:37:39;101461.88;;;29.62;52.29
49397;BME280;35615;41.410;2.194;2022-07-22T03:40:07;101463.63;;;29.63;52.64
49397;BME280;35615;41.410;2.194;2022-07-22T03:42:39;101471.63;;;29.63;52.43
49397;BME280;35615;41.410;2.194;2022-07-22T03:45:12;101463.63;;;29.63;52.38
49397;BME280;35615;41.410;2.194;2022-07-22T03:47:41;101468.03;;;29.64;52.33
49397;BME280;35615;41.410;2.194;2022-07-22T03:50:09;101462.81;;;29.61;52.56
49397;BME280;35615;41.410;2.194;2022-07-22T03:52:36;101463.63;;;29.63;52.67
49397;BME280;35615;41.410;2.194;2022-07-22T03:55:08;101466.56;;;29.54;53.20
49397;BME280;35615;41.410;2.194;2022-07-22T03:57:35;101458.41;;;29.59;52.50
49397;BME280;35615;41.410;2.194;2022-07-22T04:00:13;101466.41;;;29.59;52.62
49397;BME280;35615;41.410;2.194;2022-07-22T04:02:41;101470.09;;;29.55;52.90
49397;BME280;35615;41.410;2.194;2022-07-22T04:05:14;101463.94;;;29.53;53.14
49397;BME280;35615;41.410;2.194;2022-07-22T04:07:42;101467.56;;;29.50;52.73
49397;BME280;35615;41.410;2.194;2022-07-22T04:10:10;101462.38;;;29.44;52.97
49397;BME280;35615;41.410;2.194;2022-07-22T04:12:42;101464.03;;;29.49;53.27
49397;BME280;35615;41.410;2.194;2022-07-22T04:15:17;101465.84;;;29.47;52.95
49397;BME280;35615;41.410;2.194;2022-07-22T04:17:44;101465.84;;;29.49;53.21
49397;BME280;35615;41.410;2.194;2022-07-22T04:20:12;101469.50;;;29.43;53.53
49397;BME280;35615;41.410;2.194;2022-07-22T04:22:59;101469.44;;;29.45;53.03
49397;BME280;35615;41.410;2.194;2022-07-22T04:25:30;101473.84;;;29.46;53.22
49397;BME280;35615;41.410;2.194;2022-07-22T04:27:57;101469.50;;;29.43;53.21
49397;BME280;35615;41.410;2.194;2022-07-22T04:30:24;101473.81;;;29.49;53.43
49397;BME280;35615;41.410;2.194;2022-07-22T04:32:52;101479.22;;;29.44;53.44
49397;BME280;35615;41.410;2.194;2022-07-22T04:35:20;101478.41;;;29.42;53.47
49397;BME280;35615;41.410;2.194;2022-07-22T04:38:03;101478.34;;;29.44;53.37
49397;BME280;35615;41.410;2.194;2022-07-22T04:40:33;101479.22;;;29.44;53.39
49397;BME280;35615;41.410;2.194;2022-07-22T04:43:03;101482.75;;;29.45;53.30
49397;BME280;35615;41.410;2.194;2022-07-22T04:45:30;101485.41;;;29.45;53.33
49397;BME280;35615;41.410;2.194;2022-07-22T04:47:58;101480.91;;;29.47;53.49
49397;BME280;35615;41.410;2.194;2022-07-22T04:50:25;101478.22;;;29.50;53.44
49397;BME280;35615;41.410;2.194;2022-07-22T04:52:58;101484.50;;;29.47;53.18
49397;BME280;35615;41.410;2.194;2022-07-22T04:55:26;101483.63;;;29.45;53.50
49397;BME280;35615;41.410;2.194;2022-07-22T04:57:53;101487.22;;;29.44;53.65
49397;BME280;35615;41.410;2.194;2022-07-22T05:00:23;101488.97;;;29.45;53.48
49397;BME280;35615;41.410;2.194;2022-07-22T05:02:53;101486.75;;;29.30;53.98
49397;BME280;35615;41.410;2.194;2022-07-22T05:05:24;101493.63;;;29.37;53.64
49397;BME280;35615;41.410;2.194;2022-07-22T05:07:51;101485.63;;;29.39;53.93
49397;BME280;35615;41.410;2.194;2022-07-22T05:10:19;101492.78;;;29.35;53.69
49397;BME280;35615;41.410;2.194;2022-07-22T05:12:50;101485.47;;;29.43;53.10
49397;BME280;35615;41.410;2.194;2022-07-22T05:15:25;101484.13;;;29.29;53.25
49397;BME280;35615;41.410;2.194;2022-07-22T05:17:53;101489.34;;;29.32;53.26
49397;BME280;35615;41.410;2.194;2022-07-22T05:20:27;101492.75;;;29.37;53.05
49397;BME280;35615;41.410;2.194;2022-07-22T05:22:54;101484.59;;;29.43;53.10
49397;BME280;35615;41.410;2.194;2022-07-22T05:25:31;101486.44;;;29.41;53.32
49397;BME280;35615;41.410;2.194;2022-07-22T05:27:59;101489.91;;;29.43;53.06
49397;BME280;35615;41.410;2.194;2022-07-22T05:30:35;101481.81;;;29.47;52.96
49397;BME280;35615;41.410;2.194;2022-07-22T05:33:09;101483.59;;;29.47;52.80
49397;BME280;35615;41.410;2.194;2022-07-22T05:35:56;101474.69;;;29.49;52.54
49397;BME280;35615;41.410;2.194;2022-07-22T05:38:33;101480.78;;;29.53;52.40
49397;BME280;35615;41.410;2.194;2022-07-22T05:41:01;101476.44;;;29.50;52.38
49397;BME280;35615;41.410;2.194;2022-07-22T05:43:29;101480.66;;;29.58;51.52
49397;BME280;35615;41.410;2.194;2022-07-22T05:45:56;101475.56;;;29.48;52.57
49397;BME280;35615;41.410;2.194;2022-07-22T05:48:24;101475.47;;;29.53;52.27
49397;BME280;35615;41.410;2.194;2022-07-22T05:50:52;101473.53;;;29.58;51.80
49397;BME280;35615;41.410;2.194;2022-07-22T05:53:19;101472.59;;;29.59;51.56
49397;BME280;35615;41.410;2.194;2022-07-22T05:55:47;101469.81;;;29.64;50.94
49397;BME280;35615;41.410;2.194;2022-07-22T05:58:15;101479.56;;;29.65;51.58
49397;BME280;35615;41.410;2.194;2022-07-22T06:00:42;101480.34;;;29.68;51.63
49397;BME280;35615;41.410;2.194;2022-07-22T06:03:13;101484.72;;;29.71;50.78
49397;BME280;35615;41.410;2.194;2022-07-22T06:05:45;101482.88;;;29.73;50.56
49397;BME280;35615;41.410;2.194;2022-07-22T06:08:12;101486.47;;;29.72;50.23
49397;BME280;35615;41.410;2.194;2022-07-22T06:10:43;101486.31;;;29.76;49.87
49397;BME280;35615;41.410;2.194;2022-07-22T06:13:13;101487.13;;;29.78;49.92
49397;BME280;35615;41.410;2.194;2022-07-22T06:15:41;101492.41;;;29.80;50.06
49397;BME280;35615;41.410;2.194;2022-07-22T06:18:10;101493.25;;;29.82;49.64
49397;BME280;35615;41.410;2.194;2022-07-22T06:20:38;101493.13;;;29.87;49.35
49397;BME280;35615;41.410;2.194;2022-07-22T06:23:08;101494.69;;;29.94;49.49
49397;BME280;35615;41.410;2.194;2022-07-22T06:25:36;101490.94;;;29.99;49.13
49397;BME280;35615;41.410;2.194;2022-07-22T06:28:16;101492.53;;;30.06;49.11
49397;BME280;35615;41.410;2.194;2022-07-22T06:30:43;101489.81;;;30.08;48.85
49397;BME280;35615;41.410;2.194;2022-07-22T06:33:14;101493.16;;;30.15;48.45
49397;BME280;35615;41.410;2.194;2022-07-22T06:35:45;101490.47;;;30.16;48.39
49397;BME280;35615;41.410;2.194;2022-07-22T06:38:12;101487.63;;;30.21;48.30
49397;BME280;35615;41.410;2.194;2022-07-22T06:41:22;101482.19;;;30.24;48.18
49397;BME280;35615;41.410;2.194;2022-07-22T06:44:13;101487.69;;;30.19;47.97
49397;BME280;35615;41.410;2.194;2022-07-22T06:47:09;101484.78;;;30.27;47.78
49397;BME280;35615;41.410;2.194;2022-07-22T06:49:38;101492.22;;;30.17;47.95
49397;BME280;35615;41.410;2.194;2022-07-22T06:52:05;101488.97;;;30.34;48.11
49397;BME280;35615;41.410;2.194;2022-07-22T06:54:32;101495.06;;;30.39;47.92
49397;BME280;35615;41.410;2.194;2022-07-22T06:57:05;101493.97;;;30.45;47.96
49397;BME280;35615;41.410;2.194;2022-07-22T06:59:34;101501.84;;;30.49;47.20
49397;BME280;35615;41.410;2.194;2022-07-22T07:02:07;101499.06;;;30.52;47.04
49397;BME280;35615;41.410;2.194;2022-07-22T07:04:37;101506.19;;;30.52;46.88
49397;BME280;35615;41.410;2.194;2022-07-22T07:07:08;101504.97;;;30.62;46.52
49397;BME280;35615;41.410;2.194;2022-07-22T07:09:57;101502.03;;;30.71;46.36
49397;BME280;35615;41.410;2.194;2022-07-22T07:12:40;101500.75;;;30.83;46.82
49397;BME280;35615;41.410;2.194;2022-07-22T07:15:08;101491.63;;;30.88;46.61
49397;BME280;35615;41.410;2.194;2022-07-22T07:18:00;101496.72;;;30.96;46.35
49397;BME280;35615;41.410;2.194;2022-07-22T07:20:27;101498.56;;;30.94;46.40
49397;BME280;35615;41.410;2.194;2022-07-22T07:22:55;101497.22;;;31.07;46.51
49397;BME280;35615;41.410;2.194;2022-07-22T07:25:24;101492.50;;;31.15;45.85
49397;BME280;35615;41.410;2.194;2022-07-22T07:27:54;101496.75;;;31.21;45.77
49397;BME280;35615;41.410;2.194;2022-07-22T07:30:45;101493.09;;;31.23;45.62
49397;BME280;35615;41.410;2.194;2022-07-22T07:33:13;101503.19;;;31.40;44.90
49397;BME280;35615;41.410;2.194;2022-07-22T07:35:41;101499.25;;;31.50;44.78
49397;BME280;35615;41.410;2.194;2022-07-22T07:38:08;101500.25;;;31.46;43.03
49397;BME280;35615;41.410;2.194;2022-07-22T07:40:43;101498.25;;;31.53;41.99
49397;BME280;35615;41.410;2.194;2022-07-22T07:43:11;101498.13;;;31.56;41.42
49397;BME280;35615;41.410;2.194;2022-07-22T07:45:42;101490.44;;;31.47;40.36
49397;BME280;35615;41.410;2.194;2022-07-22T07:48:14;101490.03;;;31.58;39.91
49397;BME280;35615;41.410;2.194;2022-07-22T07:50:41;101496.97;;;31.63;39.90
49397;BME280;35615;41.410;2.194;2022-07-22T07:53:13;101503.81;;;31.47;39.67
49397;BME280;35615;41.410;2.194;2022-07-22T07:55:44;101497.09;;;31.60;39.57
49397;BME280;35615;41.410;2.194;2022-07-22T07:58:12;101501.59;;;31.83;39.41
49397;BME280;35615;41.410;2.194;2022-07-22T08:00:40;101496.59;;;31.97;39.56
49397;BME280;35615;41.410;2.194;2022-07-22T08:03:11;101503.31;;;32.07;38.77
49397;BME280;35615;41.410;2.194;2022-07-22T08:05:39;101496.09;;;32.09;38.75
49397;BME280;35615;41.410;2.194;2022-07-22T08:08:19;101497.84;;;32.11;38.78
49397;BME280;35615;41.410;2.194;2022-07-22T08:10:51;101496.59;;;32.19;39.46
49397;BME280;35615;41.410;2.194;2022-07-22T08:13:31;101505.75;;;32.35;38.79
49397;BME280;35615;41.410;2.194;2022-07-22T08:16:22;101501.81;;;32.22;39.30
49397;BME280;35615;41.410;2.194;2022-07-22T08:18:51;101500.72;;;32.28;39.65
49397;BME280;35615;41.410;2.194;2022-07-22T08:21:19;101508.63;;;32.53;38.97
49397;BME280;35615;41.410;2.194;2022-07-22T08:24:10;101509.44;;;32.55;39.21
49397;BME280;35615;41.410;2.194;2022-07-22T08:26:38;101509.31;;;32.58;39.24
49397;BME280;35615;41.410;2.194;2022-07-22T08:29:07;101506.03;;;32.51;39.31
49397;BME280;35615;41.410;2.194;2022-07-22T08:31:37;101506.81;;;32.75;39.05
49397;BME280;35615;41.410;2.194;2022-07-22T08:34:09;101505.13;;;32.94;38.89
49397;BME280;35615;41.410;2.194;2022-07-22T08:36:36;101512.75;;;33.04;39.10
49397;BME280;35615;41.410;2.194;2022-07-22T08:39:04;101517.38;;;33.41;38.61
49397;BME280;35615;41.410;2.194;2022-07-22T08:41:35;101507.41;;;33.63;39.11
49397;BME280;35615;41.410;2.194;2022-07-22T08:44:06;101509.22;;;33.63;39.94
49397;BME280;35615;41.410;2.194;2022-07-22T08:46:34;101506.56;;;33.82;39.67
49397;BME280;35615;41.410;2.194;2022-07-22T08:49:20;101515.16;;;33.69;40.27
49397;BME280;35615;41.410;2.194;2022-07-22T08:52:19;101508.97;;;33.88;41.11
49397;BME280;35615;41.410;2.194;2022-07-22T08:54:49;101513.16;;;34.12;40.66
49397;BME280;35615;41.410;2.194;2022-07-22T08:57:18;101515.56;;;34.37;40.87
49397;BME280;35615;41.410;2.194;2022-07-22T08:59:53;101504.72;;;34.75;40.20
49397;BME280;35615;41.410;2.194;2022-07-22T09:02:22;101505.13;;;34.84;40.46
49397;BME280;35615;41.410;2.194;2022-07-22T09:04:56;101500.72;;;35.01;40.83
49397;BME280;35615;41.410;2.194;2022-07-22T09:07:35;101503.97;;;35.07;40.43
49397;BME280;35615;41.410;2.194;2022-07-22T09:10:17;101496.53;;;35.12;40.63
49397;BME280;35615;41.410;2.194;2022-07-22T09:13:06;101497.69;;;35.24;41.22
49397;BME280;35615;41.410;2.194;2022-07-22T09:15:55;101501.38;;;35.06;40.95
49397;BME280;35615;41.410;2.194;2022-07-22T09:18:46;101496.28;;;35.17;40.34
49397;BME280;35615;41.410;2.194;2022-07-22T09:21:30;101500.94;;;35.13;41.18
49397;BME280;35615;41.410;2.194;2022-07-22T09:24:31;101506.75;;;35.06;41.92
49397;BME280;35615;41.410;2.194;2022-07-22T09:27:37;101501.72;;;35.50;40.88
49397;BME280;35615;41.410;2.194;2022-07-22T09:30:26;101491.75;;;35.52;40.43
49397;BME280;35615;41.410;2.194;2022-07-22T09:33:08;101497.66;;;35.74;40.61
49397;BME280;35615;41.410;2.194;2022-07-22T09:35:44;101497.69;;;35.90;39.96
49397;BME280;35615;41.410;2.194;2022-07-22T09:38:26;101486.94;;;35.90;39.65
49397;BME280;35615;41.410;2.194;2022-07-22T09:40:56;101487.56;;;36.43;39.21
49397;BME280;35615;41.410;2.194;2022-07-22T09:43:24;101483.69;;;36.62;38.10
49397;BME280;35615;41.410;2.194;2022-07-22T09:45:56;101482.94;;;36.45;37.84
49397;BME280;35615;41.410;2.194;2022-07-22T09:49:02;101481.94;;;36.16;38.10
49397;BME280;35615;41.410;2.194;2022-07-22T09:51:45;101481.03;;;36.31;38.17
49397;BME280;35615;41.410;2.194;2022-07-22T09:54:35;101476.59;;;36.76;36.87
49397;BME280;35615;41.410;2.194;2022-07-22T09:57:04;101474.56;;;36.65;36.91
49397;BME280;35615;41.410;2.194;2022-07-22T09:59:35;101482.06;;;36.44;36.12
49397;BME280;35615;41.410;2.194;2022-07-22T10:02:21;101483.50;;;36.65;35.51
49397;BME280;35615;41.410;2.194;2022-07-22T10:04:57;101474.72;;;36.16;35.98
49397;BME280;35615;41.410;2.194;2022-07-22T10:07:27;101467.47;;;36.78;34.94
49397;BME280;35615;41.410;2.194;2022-07-22T10:09:57;101484.00;;;36.72;34.36
49397;BME280;35615;41.410;2.194;2022-07-22T10:12:26;101470.78;;;36.83;34.47
49397;BME280;35615;41.410;2.194;2022-07-22T10:14:54;101470.72;;;36.99;34.45
49397;BME280;35615;41.410;2.194;2022-07-22T10:17:22;101463.13;;;36.76;34.27
49397;BME280;35615;41.410;2.194;2022-07-22T10:19:51;101473.41;;;36.99;33.97
49397;BME280;35615;41.410;2.194;2022-07-22T10:25:12;101461.28;;;36.62;33.01
49397;BME280;35615;41.410;2.194;2022-07-22T10:30:22;101465.84;;;37.06;32.99
49397;BME280;35615;41.410;2.194;2022-07-22T10:33:12;101456.75;;;37.37;32.53
49397;BME280;35615;41.410;2.194;2022-07-22T10:38:11;101463.50;;;37.00;32.67
49397;BME280;35615;41.410;2.194;2022-07-22T10:41:02;101463.97;;;36.62;33.16
49397;BME280;35615;41.410;2.194;2022-07-22T10:46:14;101458.88;;;36.87;32.79
49397;BME280;35615;41.410;2.194;2022-07-22T10:51:20;101459.81;;;36.56;33.65
49397;BME280;35615;41.410;2.194;2022-07-22T10:53:58;101449.75;;;37.18;33.00
49397;BME280;35615;41.410;2.194;2022-07-22T10:56:32;101452.69;;;37.30;32.04
49397;BME280;35615;41.410;2.194;2022-07-22T10:59:11;101452.22;;;37.37;32.19
49397;BME280;35615;41.410;2.194;2022-07-22T11:01:49;101461.22;;;37.08;33.57
49397;BME280;35615;41.410;2.194;2022-07-22T11:04:21;101452.91;;;36.97;33.18
49397;BME280;35615;41.410;2.194;2022-07-22T11:06:51;101462.59;;;37.29;32.70
49397;BME280;35615;41.410;2.194;2022-07-22T11:09:21;101459.06;;;36.69;34.04
49397;BME280;35615;41.410;2.194;2022-07-22T11:11:54;101456.78;;;36.77;34.29
49397;BME280;35615;41.410;2.194;2022-07-22T11:14:24;101452.06;;;36.80;34.23
49397;BME280;35615;41.410;2.194;2022-07-22T11:17:11;101449.47;;;37.09;33.72
49397;BME280;35615;41.410;2.194;2022-07-22T11:19:50;101455.06;;;36.30;34.99
49397;BME280;35615;41.410;2.194;2022-07-22T11:22:18;101451.06;;;36.53;34.70
49397;BME280;35615;41.410;2.194;2022-07-22T11:24:51;101446.78;;;36.79;34.16
49397;BME280;35615;41.410;2.194;2022-07-22T11:27:19;101440.59;;;36.62;35.29
49397;BME280;35615;41.410;2.194;2022-07-22T11:29:54;101441.84;;;36.87;34.64
49397;BME280;35615;41.410;2.194;2022-07-22T11:32:25;101446.31;;;37.16;34.16
49397;BME280;35615;41.410;2.194;2022-07-22T11:35:03;101449.69;;;37.48;33.87
49397;BME280;35615;41.410;2.194;2022-07-22T11:37:30;101452.59;;;37.31;33.82
49397;BME280;35615;41.410;2.194;2022-07-22T11:40:03;101446.00;;;37.07;34.06
49397;BME280;35615;41.410;2.194;2022-07-22T11:42:35;101440.63;;;37.35;34.07
49397;BME280;35615;41.410;2.194;2022-07-22T11:45:03;101447.66;;;37.52;33.78
49397;BME280;35615;41.410;2.194;2022-07-22T11:47:31;101447.53;;;37.11;34.28
49397;BME280;35615;41.410;2.194;2022-07-22T11:50:00;101440.06;;;37.44;33.47
49397;BME280;35615;41.410;2.194;2022-07-22T11:52:27;101451.03;;;37.27;34.32
49397;BME280;35615;41.410;2.194;2022-07-22T11:54:55;101430.53;;;37.53;33.77
49397;BME280;35615;41.410;2.194;2022-07-22T11:57:23;101431.50;;;36.79;33.75
49397;BME280;35615;41.410;2.194;2022-07-22T11:59:54;101450.72;;;36.73;34.29
49397;BME280;35615;41.410;2.194;2022-07-22T12:02:29;101437.25;;;37.17;33.75
49397;BME280;35615;41.410;2.194;2022-07-22T12:05:06;101434.75;;;37.14;34.48
49397;BME280;35615;41.410;2.194;2022-07-22T12:07:54;101427.66;;;37.42;33.41
49397;BME280;35615;41.410;2.194;2022-07-22T12:10:28;101416.59;;;37.32;33.58
49397;BME280;35615;41.410;2.194;2022-07-22T12:12:55;101432.78;;;36.88;34.93
49397;BME280;35615;41.410;2.194;2022-07-22T12:15:22;101435.06;;;37.38;34.11
49397;BME280;35615;41.410;2.194;2022-07-22T12:18:27;101428.72;;;37.39;34.82
49397;BME280;35615;41.410;2.194;2022-07-22T12:20:55;101427.41;;;36.88;35.24
49397;BME280;35615;41.410;2.194;2022-07-22T12:23:25;101431.38;;;36.97;34.40
49397;BME280;35615;41.410;2.194;2022-07-22T12:26:01;101431.75;;;37.19;34.17
49397;BME280;35615;41.410;2.194;2022-07-22T12:28:31;101427.38;;;36.74;34.63
49397;BME280;35615;41.410;2.194;2022-07-22T12:30:59;101430.44;;;37.26;34.15
49397;BME280;35615;41.410;2.194;2022-07-22T12:33:26;101424.84;;;37.15;34.10
49397;BME280;35615;41.410;2.194;2022-07-22T12:36:06;101415.28;;;37.23;34.20
49397;BME280;35615;41.410;2.194;2022-07-22T12:38:34;101426.97;;;37.53;34.23
49397;BME280;35615;41.410;2.194;2022-07-22T12:41:25;101426.47;;;37.17;34.17
49397;BME280;35615;41.410;2.194;2022-07-22T12:43:54;101426.94;;;37.24;34.42
49397;BME280;35615;41.410;2.194;2022-07-22T12:46:24;101427.13;;;36.32;35.92
49397;BME280;35615;41.410;2.194;2022-07-22T12:48:53;101417.66;;;36.71;35.77
49397;BME280;35615;41.410;2.194;2022-07-22T12:51:21;101422.13;;;37.01;35.18
49397;BME280;35615;41.410;2.194;2022-07-22T12:53:48;101418.09;;;36.63;35.28
49397;BME280;35615;41.410;2.194;2022-07-22T12:56:19;101425.47;;;36.30;36.23
49397;BME280;35615;41.410;2.194;2022-07-22T12:58:47;101410.78;;;37.10;35.29
49397;BME280;35615;41.410;2.194;2022-07-22T13:01:18;101401.16;;;37.20;34.64
49397;BME280;35615;41.410;2.194;2022-07-22T13:03:48;101427.03;;;36.94;34.75
49397;BME280;35615;41.410;2.194;2022-07-22T13:06:16;101404.97;;;36.43;35.41
49397;BME280;35615;41.410;2.194;2022-07-22T13:08:44;101400.41;;;37.32;34.37
49397;BME280;35615;41.410;2.194;2022-07-22T13:11:13;101416.38;;;36.92;34.16
49397;BME280;35615;41.410;2.194;2022-07-22T13:13:41;101402.06;;;36.76;35.41
49397;BME280;35615;41.410;2.194;2022-07-22T13:16:10;101395.38;;;36.83;36.23
49397;BME280;35615;41.410;2.194;2022-07-22T13:18:38;101399.13;;;37.23;35.77
49397;BME280;35615;41.410;2.194;2022-07-22T13:21:06;101408.06;;;36.81;35.75
49397;BME280;35615;41.410;2.194;2022-07-22T13:23:36;101403.03;;;36.75;35.09
49397;BME280;35615;41.410;2.194;2022-07-22T13:26:04;101390.00;;;37.26;34.70
49397;BME280;35615;41.410;2.194;2022-07-22T13:28:32;101395.38;;;37.12;35.00
49397;BME280;35615;41.410;2.194;2022-07-22T13:31:02;101426.41;;;37.33;34.75
49397;BME280;35615;41.410;2.194;2022-07-22T13:33:29;101400.59;;;37.43;34.66
49397;BME280;35615;41.410;2.194;2022-07-22T13:36:01;101387.31;;;37.40;34.61
49397;BME280;35615;41.410;2.194;2022-07-22T13:38:33;101395.81;;;36.76;35.67
49397;BME280;35615;41.410;2.194;2022-07-22T13:41:00;101383.56;;;36.86;36.10
49397;BME280;35615;41.410;2.194;2022-07-22T13:43:28;101394.81;;;36.92;35.99
49397;BME280;35615;41.410;2.194;2022-07-22T13:45:56;101391.66;;;37.14;36.37